Portada
METAR-TAF:

METAR-TAF

Aeropuertos :

Yazd, Irán

latitud: 31-54N, longitud: 054-24E, altitud: 1238 m

Observación

El informe se hizo hace 41 minutos, a las 14:30 UTC
Viento 4 kt del suroeste
Temperatura 11°C
Humedad 22%
Presión 1022 hPa
Visibilidad 10 km o más
sin nubes por debajo de 1500 m y sin presencia de cumulonimbus.

METAR: OIYY 181430Z 23004KT CAVOK 11/M10 Q1022

Hora: 18:41 (15:11 UTC)


TAF: falta

Observaciones y pronósticos meteorológicos de más de 4000 aeropuertos (mensajes METAR y TAF).

Los puntos amarillos y rojos representan las estaciones disponibles.

Ponga el ratón en el punto deseado para ver el nombre de la estación.

Haga clic para ver las observaciones y los pronósticos meteorológicos.

Para cambiar el mapa : haga clic en los botones verdes con una cruz de color negro para hacer un zoom, en el botón verde con un guión para alejar o en las flechas verdes para mapas adyacentes.


METAR-TAF: